Terminal Aerodrome Forecast
Issued by NWS

Home | Current Version | Previous Version | Text Only | Print | Product List | Glossary Off
Versions: 1 2 3 4 5 6 7 8 9 10 11 12 13 14 15

000
FTUS43 KABR 260500
TAFMBG
TAF
KMBG 260526Z 2606/2706 12006KT P6SM SCT150
     FM261200 31010KT P6SM SKC
     FM261600 31018G28KT P6SM SKC
     FM270200 33007KT P6SM SKC=

USA.gov is the U.S. government's official web portal to all federal, state and local government web resources and services.